Time;durP1;ratioP1;P1;durP2;ratioP2;P2;SDS_P1;SDS_P2;PMS_P1;PMS_P2;Temp;Humidity;BMP_temperature;BMP_pressure;BME280_temperature;BME280_humidity;BME280_pressure;Samples;Min_cycle;Max_cycle;Signal;HPM_P1;HPM_P2
2022/12/21 12:27:53;;;;;;;7.03;4.73;;;;;;;11.74;100.00;98550.13;5101690;28;20556;-86
2022/12/21 12:34:19;;;;;;;4.37;3.97;;;;;;;12.22;100.00;98539.56;5083512;28;41080;-86
2022/12/21 12:37:29;;;;;;;3.60;3.30;;;;;;;12.52;100.00;98553.19;5081020;28;41886;-84
2022/12/21 12:40:42;;;;;;;4.63;3.57;;;;;;;12.59;100.00;98546.47;5091506;28;41479;-84
2022/12/21 12:43:51;;;;;;;4.67;3.87;;;;;;;12.59;100.00;98557.09;5090069;28;40402;-84
2022/12/21 12:47:11;;;;;;;3.83;3.53;;;;;;;12.74;100.00;98583.44;5091572;28;41282;-83
2022/12/21 12:50:42;;;;;;;3.53;3.10;;;;;;;12.55;100.00;98563.59;5090881;28;41627;-83
2022/12/21 13:13:45;;;;;;;4.33;3.93;;;;;;;12.33;100.00;98574.13;5106007;28;40408;-82
2022/12/21 13:16:21;;;;;;;4.70;4.30;;;;;;;12.19;100.00;98555.72;5072583;28;40541;-86
2022/12/21 13:18:53;;;;;;;4.37;3.97;;;;;;;12.38;100.00;98556.03;5091141;28;41858;-83
2022/12/21 13:21:23;;;;;;;5.30;3.90;;;;;;;12.42;100.00;98559.31;5074515;28;41075;-81
2022/12/21 13:23:56;;;;;;;4.07;3.77;;;;;;;12.61;100.00;98566.78;5091245;28;39760;-83
2022/12/21 13:26:28;;;;;;;5.13;4.63;;;;;;;12.92;100.00;98560.81;5074281;28;40927;-85
2022/12/21 13:29:02;;;;;;;4.83;4.43;;;;;;;13.04;100.00;98549.22;5073922;28;44344;-82
2022/12/21 13:31:39;;;;;;;4.70;4.30;;;;;;;13.13;99.84;98566.25;5091070;28;42001;-84
2022/12/21 13:34:14;;;;;;;4.47;3.90;;;;;;;13.14;99.79;98574.16;5073642;28;39585;-85
2022/12/21 13:36:44;;;;;;;4.40;4.00;;;;;;;13.10;99.03;98575.34;5071504;28;41592;-83
2022/12/21 13:39:18;;;;;;;4.20;3.90;;;;;;;13.03;98.97;98579.44;5060377;28;41915;-84
2022/12/21 13:41:51;;;;;;;4.17;3.77;;;;;;;12.90;98.80;98566.22;5060679;28;41336;-84
2022/12/21 13:44:31;;;;;;;4.83;3.67;;;;;;;12.94;98.72;98574.81;5060301;28;40358;-87
2022/12/21 13:47:00;;;;;;;3.97;3.67;;;;;;;12.82;98.92;98570.44;5060603;28;41924;-86
2022/12/21 13:49:49;;;;;;;4.27;3.53;;;;;;;12.82;99.06;98570.44;5059969;28;43156;-85
2022/12/21 13:52:22;;;;;;;3.87;3.57;;;;;;;12.63;98.72;98546.22;5060481;28;41341;-85
2022/12/21 13:54:56;;;;;;;3.40;3.10;;;;;;;12.79;98.89;98581.31;5060329;28;38882;-82
2022/12/21 13:57:30;;;;;;;4.47;4.07;;;;;;;12.64;98.36;98562.06;5077183;28;42402;-83
2022/12/21 14:00:08;;;;;;;4.13;3.70;;;;;;;12.67;98.76;98569.78;5060267;28;42363;-83
2022/12/21 14:02:52;;;;;;;3.77;3.20;;;;;;;12.67;98.29;98582.22;5076807;28;42681;-83
2022/12/21 14:05:23;;;;;;;3.80;3.13;;;;;;;12.56;98.14;98564.44;5059994;28;38924;-86
2022/12/21 14:08:22;;;;;;;3.90;3.00;;;;;;;12.61;98.23;98580.88;5059984;28;41855;-84
2022/12/21 14:11:09;;;;;;;4.60;3.70;;;;;;;12.48;97.99;98572.16;5059814;28;42909;-85
2022/12/21 14:14:07;;;;;;;3.97;3.20;;;;;;;12.50;98.56;98581.69;5092984;28;42230;-85
2022/12/21 14:16:37;;;;;;;3.80;3.40;;;;;;;12.47;98.35;98592.56;5059639;28;40238;-86
2022/12/21 14:19:15;;;;;;;2.83;2.60;;;;;;;12.43;98.19;98591.06;5075596;28;41368;-82
2022/12/21 14:21:47;;;;;;;4.93;3.50;;;;;;;12.23;98.29;98573.97;5059521;28;43404;-82
2022/12/21 14:24:21;;;;;;;3.57;3.27;;;;;;;12.17;98.45;98584.19;5060026;28;41253;-84
2022/12/21 14:26:53;;;;;;;4.37;3.93;;;;;;;12.12;99.12;98592.47;5059162;28;38806;-86
2022/12/21 14:29:24;;;;;;;3.33;3.03;;;;;;;12.04;99.12;98591.34;5059752;28;40819;-85
2022/12/21 14:31:59;;;;;;;3.53;3.27;;;;;;;11.97;99.53;98577.69;5059149;28;41681;-85
2022/12/21 14:34:29;;;;;;;4.57;3.53;;;;;;;11.96;99.65;98588.41;5076142;28;41448;-87
2022/12/21 14:37:21;;;;;;;3.70;3.40;;;;;;;11.92;100.00;98590.41;5059185;28;40333;-84
